createdAt,value
2022-12-01T00:01:12.620Z,97544.28
2022-12-01T00:03:39.313Z,97538.84
2022-12-01T00:06:17.889Z,97543.41
2022-12-01T00:09:06.044Z,97540.75
2022-12-01T00:11:34.796Z,97535.41
2022-12-01T00:14:01.994Z,97529.19
2022-12-01T00:16:29.078Z,97525.78
2022-12-01T00:18:56.855Z,97530.09
2022-12-01T00:21:25.190Z,97529.28
2022-12-01T00:23:54.233Z,97525.75
2022-12-01T00:26:21.916Z,97516.22
2022-12-01T00:28:49.897Z,97518.81
2022-12-01T00:31:16.564Z,97520.50
2022-12-01T00:33:43.233Z,97527.38
2022-12-01T00:36:09.970Z,97521.19
2022-12-01T00:38:37.021Z,97522.09
2022-12-01T00:41:03.978Z,97524.56
2022-12-01T00:43:30.523Z,97518.56
2022-12-01T00:45:57.680Z,97517.50
2022-12-01T00:48:24.604Z,97519.63
2022-12-01T00:50:52.653Z,97525.63
2022-12-01T00:53:19.488Z,97528.09
2022-12-01T00:55:46.100Z,97524.69
2022-12-01T00:58:12.678Z,97524.63
2022-12-01T01:00:39.223Z,97523.00
2022-12-01T01:03:08.864Z,97523.00
2022-12-01T01:05:39.932Z,97516.00
2022-12-01T01:08:08.453Z,97523.69
2022-12-01T01:10:41.947Z,97526.28
2022-12-01T01:13:08.874Z,97525.50
2022-12-01T01:15:35.808Z,97512.63
2022-12-01T01:18:02.659Z,97518.44
2022-12-01T01:20:29.634Z,97521.09
2022-12-01T01:22:56.208Z,97510.66
2022-12-01T01:25:22.900Z,97518.44
2022-12-01T01:27:50.240Z,97525.34
2022-12-01T01:30:17.684Z,97518.44
2022-12-01T01:32:44.230Z,97517.50
2022-12-01T01:35:10.837Z,97511.34
2022-12-01T01:37:37.416Z,97508.78
2022-12-01T01:40:04.503Z,97507.94
2022-12-01T01:42:30.990Z,97504.53
2022-12-01T01:44:58.905Z,97511.34
2022-12-01T01:47:35.046Z,97512.09
2022-12-01T01:50:12.401Z,97513.00
2022-12-01T01:52:44.589Z,97506.97
2022-12-01T01:55:12.744Z,97509.47
2022-12-01T01:57:40.505Z,97504.22
2022-12-01T02:00:13.976Z,97512.00
2022-12-01T02:02:45.791Z,97512.81
2022-12-01T02:05:16.811Z,97506.91
2022-12-01T02:07:43.833Z,97508.47
2022-12-01T02:10:13.156Z,97506.91
2022-12-01T02:12:53.632Z,97511.94
2022-12-01T02:15:40.320Z,97504.22
2022-12-01T02:18:20.738Z,97488.59
2022-12-01T02:21:20.037Z,97497.38
2022-12-01T02:24:05.327Z,97501.66
2022-12-01T02:26:56.415Z,97498.28
2022-12-01T02:29:46.877Z,97497.38
2022-12-01T02:32:24.870Z,97495.06
2022-12-01T02:34:54.281Z,97494.28
2022-12-01T02:37:42.023Z,97486.38
2022-12-01T02:40:26.689Z,97482.09
2022-12-01T02:43:03.678Z,97486.44
2022-12-01T02:45:37.258Z,97484.69
2022-12-01T02:48:11.168Z,97486.44
2022-12-01T02:50:39.916Z,97478.59
2022-12-01T02:53:09.282Z,97484.56
2022-12-01T02:55:35.926Z,97492.19
2022-12-01T02:58:02.478Z,97478.47
2022-12-01T03:00:30.938Z,97480.16
2022-12-01T03:03:09.239Z,97480.16
2022-12-01T03:06:10.976Z,97476.00
2022-12-01T03:09:04.347Z,97482.75
2022-12-01T03:11:42.165Z,97480.22
2022-12-01T03:14:27.423Z,97475.06
2022-12-01T03:16:54.678Z,97480.34
2022-12-01T03:19:31.748Z,97473.50
2022-12-01T03:22:16.774Z,97477.03
2022-12-01T03:24:48.055Z,97477.88
2022-12-01T03:27:18.706Z,97484.78
2022-12-01T03:29:49.729Z,97479.59
2022-12-01T03:32:29.514Z,97476.03
2022-12-01T03:35:05.048Z,97481.28
2022-12-01T03:37:49.614Z,97468.38
2022-12-01T03:40:21.616Z,97479.50
2022-12-01T03:42:52.680Z,97477.72
2022-12-01T03:45:31.455Z,97480.31
2022-12-01T03:47:58.171Z,97476.88
2022-12-01T03:50:31.458Z,97485.72
2022-12-01T03:53:23.723Z,97475.28
2022-12-01T03:55:56.622Z,97480.25
2022-12-01T03:58:29.607Z,97474.28
2022-12-01T04:00:57.768Z,97478.50
2022-12-01T04:03:26.019Z,97475.16
2022-12-01T04:05:52.559Z,97483.75
2022-12-01T04:08:19.111Z,97481.25
2022-12-01T04:10:45.620Z,97484.09
2022-12-01T04:13:22.086Z,97482.28
2022-12-01T04:15:53.182Z,97483.22
2022-12-01T04:18:20.320Z,97486.06
2022-12-01T04:20:48.526Z,97485.09
2022-12-01T04:23:35.645Z,97484.78
2022-12-01T04:26:03.733Z,97486.53
2022-12-01T04:28:30.434Z,97478.66
2022-12-01T04:30:57.055Z,97479.47
2022-12-01T04:33:23.690Z,97474.03
2022-12-01T04:36:00.203Z,97475.91
2022-12-01T04:38:30.601Z,97481.16
2022-12-01T04:40:57.733Z,97472.63
2022-12-01T04:43:24.272Z,97475.22
2022-12-01T04:45:50.780Z,97471.69
2022-12-01T04:48:17.253Z,97476.03
2022-12-01T04:50:43.724Z,97472.63
2022-12-01T04:53:10.243Z,97477.75
2022-12-01T04:55:39.001Z,97475.84
2022-12-01T04:58:06.059Z,97477.53
2022-12-01T05:00:33.246Z,97472.41
2022-12-01T05:03:00.540Z,97480.25
2022-12-01T05:05:27.679Z,97480.34
2022-12-01T05:07:54.350Z,97478.69
2022-12-01T05:10:21.406Z,97480.31
2022-12-01T05:12:47.992Z,97482.91
2022-12-01T05:15:14.687Z,97490.56
2022-12-01T05:17:41.448Z,97479.41
2022-12-01T05:20:27.545Z,97489.66
2022-12-01T05:23:05.221Z,97481.88
2022-12-01T05:25:32.344Z,97495.63
2022-12-01T05:27:58.882Z,97497.19
2022-12-01T05:30:28.575Z,97499.78
2022-12-01T05:32:55.462Z,97499.88
2022-12-01T05:35:22.040Z,97503.41
2022-12-01T05:37:48.541Z,97500.06
2022-12-01T05:40:15.109Z,97501.88
2022-12-01T05:42:41.610Z,97500.94
2022-12-01T05:45:08.527Z,97498.28
2022-12-01T05:47:34.981Z,97498.41
2022-12-01T05:50:05.563Z,97498.44
2022-12-01T05:52:34.902Z,97500.94
2022-12-01T05:55:02.647Z,97500.00
2022-12-01T05:57:29.332Z,97502.66
2022-12-01T05:59:55.902Z,97502.75
2022-12-01T06:02:22.794Z,97497.56
2022-12-01T06:04:49.378Z,97498.41
2022-12-01T06:07:15.919Z,97494.78
2022-12-01T06:09:42.565Z,97498.34
2022-12-01T06:12:09.096Z,97504.38
2022-12-01T06:14:35.624Z,97503.63
2022-12-01T06:17:02.589Z,97517.56
2022-12-01T06:19:29.174Z,97509.78
2022-12-01T06:21:55.677Z,97510.50
2022-12-01T06:24:22.240Z,97506.13
2022-12-01T06:26:48.826Z,97508.00
2022-12-01T06:29:15.630Z,97512.31
2022-12-01T06:31:42.764Z,97511.38
2022-12-01T06:34:10.303Z,97517.50
2022-12-01T06:36:36.902Z,97520.13
2022-12-01T06:39:08.451Z,97516.50
2022-12-01T06:41:34.989Z,97510.50
2022-12-01T06:44:01.962Z,97518.38
2022-12-01T06:46:28.920Z,97527.97
2022-12-01T06:48:55.603Z,97526.22
2022-12-01T06:51:22.602Z,97521.06
2022-12-01T06:53:57.718Z,97525.25
2022-12-01T06:56:27.456Z,97529.63
2022-12-01T06:58:54.224Z,97534.69
2022-12-01T07:01:21.741Z,97529.88
2022-12-01T07:03:50.276Z,97532.63
2022-12-01T07:06:17.990Z,97527.44
2022-12-01T07:08:44.928Z,97534.78
2022-12-01T07:11:13.820Z,97537.84
2022-12-01T07:13:41.869Z,97538.72
2022-12-01T07:16:09.489Z,97542.09
2022-12-01T07:18:37.094Z,97547.38
2022-12-01T07:21:07.114Z,97549.94
2022-12-01T07:23:34.549Z,97548.13
2022-12-01T07:26:06.036Z,97554.44
2022-12-01T07:28:33.068Z,97552.16
2022-12-01T07:31:12.892Z,97551.09
2022-12-01T07:33:39.763Z,97557.03
2022-12-01T07:36:07.224Z,97556.59
2022-12-01T07:38:35.060Z,97558.13
2022-12-01T07:41:16.116Z,97563.34
2022-12-01T07:43:42.949Z,97560.63
2022-12-01T07:46:20.584Z,97566.50
2022-12-01T07:48:49.498Z,97559.81
2022-12-01T07:51:19.178Z,97564.13
2022-12-01T07:53:48.220Z,97566.66
2022-12-01T07:56:15.364Z,97568.31
2022-12-01T07:58:42.138Z,97559.38
2022-12-01T08:01:14.751Z,97572.41
2022-12-01T08:03:42.421Z,97569.69
2022-12-01T08:06:10.033Z,97571.16
2022-12-01T08:08:38.732Z,97578.22
2022-12-01T08:11:07.781Z,97579.84
2022-12-01T08:13:34.404Z,97580.38
2022-12-01T08:16:05.137Z,97585.53
2022-12-01T08:18:34.650Z,97572.50
2022-12-01T08:21:01.376Z,97571.28
2022-12-01T08:23:28.931Z,97577.13
2022-12-01T08:25:57.544Z,97569.84
2022-12-01T08:28:24.144Z,97566.81
2022-12-01T08:30:50.754Z,97570.06
2022-12-01T08:33:17.494Z,97576.34
2022-12-01T08:35:44.003Z,97579.09
2022-12-01T08:38:10.808Z,97586.69
2022-12-01T08:40:37.349Z,97581.91
2022-12-01T08:43:04.392Z,97573.47
2022-12-01T08:45:30.933Z,97573.47
2022-12-01T08:47:58.986Z,97577.88
2022-12-01T08:50:27.281Z,97569.53
2022-12-01T08:52:54.336Z,97579.25
2022-12-01T08:55:21.985Z,97578.91
2022-12-01T08:57:48.571Z,97584.94
2022-12-01T09:00:16.068Z,97582.25
2022-12-01T09:02:42.713Z,97590.97
2022-12-01T09:05:09.625Z,97586.84
2022-12-01T09:07:36.177Z,97585.09
2022-12-01T09:10:02.894Z,97584.91
2022-12-01T09:12:30.006Z,97586.63
2022-12-01T09:14:56.591Z,97585.38
2022-12-01T09:17:23.768Z,97587.09
2022-12-01T09:19:50.661Z,97577.31
2022-12-01T09:22:17.417Z,97584.19
2022-12-01T09:24:43.933Z,97583.16
2022-12-01T09:27:10.599Z,97581.34
2022-12-01T09:29:37.060Z,97587.53
2022-12-01T09:32:03.835Z,97579.25
2022-12-01T09:34:30.391Z,97582.03
2022-12-01T09:36:58.538Z,97577.47
2022-12-01T09:39:25.749Z,97574.22
2022-12-01T09:42:13.854Z,97573.09
2022-12-01T09:44:53.099Z,97567.88
2022-12-01T09:47:35.437Z,97567.22
2022-12-01T09:50:16.436Z,97564.44
2022-12-01T09:52:49.110Z,97558.69
2022-12-01T09:55:19.067Z,97564.22
2022-12-01T09:57:50.876Z,97568.09
2022-12-01T10:00:24.268Z,97565.25
2022-12-01T10:02:59.418Z,97551.44
2022-12-01T10:05:31.523Z,97557.47
2022-12-01T10:08:07.841Z,97555.47
2022-12-01T10:10:42.920Z,97552.13
2022-12-01T10:13:21.994Z,97552.78
2022-12-01T10:15:54.460Z,97551.22
2022-12-01T10:18:48.144Z,97554.88
2022-12-01T10:21:25.372Z,97539.78
2022-12-01T10:24:13.269Z,97541.53
2022-12-01T10:26:55.016Z,97544.69
2022-12-01T10:29:41.831Z,97539.19
2022-12-01T10:32:18.101Z,97542.06
2022-12-01T10:34:47.824Z,97537.00
2022-12-01T10:37:20.319Z,97530.16
2022-12-01T10:39:50.103Z,97526.06
2022-12-01T10:42:16.679Z,97530.63
2022-12-01T10:44:44.405Z,97530.16
2022-12-01T10:47:22.302Z,97526.47
2022-12-01T10:49:49.970Z,97527.59
2022-12-01T10:52:41.799Z,97525.47
2022-12-01T10:55:23.179Z,97521.22
2022-12-01T10:57:50.563Z,97520.94
2022-12-01T11:00:57.976Z,97513.94
2022-12-01T11:03:24.500Z,97523.53
2022-12-01T11:06:00.438Z,97516.38
2022-12-01T11:08:39.090Z,97518.81
2022-12-01T11:11:06.161Z,97505.72
2022-12-01T11:13:36.406Z,97516.69
2022-12-01T11:16:06.551Z,97507.31
2022-12-01T11:18:36.997Z,97500.09
2022-12-01T11:21:08.667Z,97505.59
2022-12-01T11:23:37.398Z,97509.56
2022-12-01T11:26:14.155Z,97508.88
2022-12-01T11:28:53.122Z,97506.53
2022-12-01T11:31:22.394Z,97496.59
2022-12-01T11:33:49.393Z,97502.47
2022-12-01T11:36:25.991Z,97497.88
2022-12-01T11:38:58.061Z,97494.22
2022-12-01T11:41:32.152Z,97498.06
2022-12-01T11:44:04.147Z,97488.53
2022-12-01T11:46:50.206Z,97486.47
2022-12-01T11:49:29.573Z,97493.16
2022-12-01T11:51:56.105Z,97487.16
2022-12-01T11:54:26.044Z,97490.84
2022-12-01T11:59:40.921Z,97496.66
2022-12-01T12:02:32.914Z,97491.91
2022-12-01T12:05:31.341Z,97494.59
2022-12-01T12:07:57.885Z,97493.97
2022-12-01T12:10:39.866Z,97491.97
2022-12-01T12:13:12.293Z,97496.09
2022-12-01T12:16:00.599Z,97487.47
2022-12-01T12:18:48.927Z,97483.25
2022-12-01T12:21:30.752Z,97480.88
2022-12-01T12:24:09.199Z,97476.47
2022-12-01T12:26:45.092Z,97474.88
2022-12-01T12:29:29.955Z,97475.91
2022-12-01T12:32:34.987Z,97476.06
2022-12-01T12:35:19.817Z,97468.81
2022-12-01T12:37:58.745Z,97469.09
2022-12-01T12:40:56.031Z,97465.50
2022-12-01T12:43:31.585Z,97459.59
2022-12-01T12:46:01.374Z,97468.16
2022-12-01T12:48:50.854Z,97462.44
2022-12-01T12:51:32.276Z,97459.75
2022-12-01T12:54:28.955Z,97456.84
2022-12-01T12:57:02.251Z,97465.16
2022-12-01T12:59:41.053Z,97465.31
2022-12-01T13:02:26.885Z,97467.50
2022-12-01T13:05:05.450Z,97463.84
2022-12-01T13:07:46.239Z,97461.69
2022-12-01T13:10:28.685Z,97461.63
2022-12-01T13:13:01.689Z,97460.63
2022-12-01T13:15:30.774Z,97457.38
2022-12-01T13:18:04.104Z,97467.97
2022-12-01T13:20:33.342Z,97466.19
2022-12-01T13:23:02.401Z,97461.75
2022-12-01T13:25:40.954Z,97459.56
2022-12-01T13:28:17.407Z,97460.97
2022-12-01T13:31:08.707Z,97469.84
2022-12-01T13:33:37.361Z,97464.63
2022-12-01T13:39:04.773Z,97455.97
2022-12-01T13:41:39.635Z,97459.56
2022-12-01T13:44:28.222Z,97471.09
2022-12-01T13:47:09.967Z,97466.91
2022-12-01T13:49:44.730Z,97466.06
2022-12-01T13:52:23.794Z,97457.09
2022-12-01T13:55:23.116Z,97463.13
2022-12-01T13:58:13.235Z,97462.09
2022-12-01T14:00:41.295Z,97460.16
2022-12-01T14:03:20.236Z,97458.41
2022-12-01T14:05:53.199Z,97462.91
2022-12-01T14:08:30.842Z,97459.56
2022-12-01T14:11:00.626Z,97462.91
2022-12-01T14:13:28.697Z,97460.28
2022-12-01T14:15:57.979Z,97463.50
2022-12-01T14:18:44.295Z,97458.59
2022-12-01T14:21:12.444Z,97455.09
2022-12-01T14:23:58.928Z,97452.06
2022-12-01T14:26:28.490Z,97461.16
2022-12-01T14:28:54.966Z,97455.47
2022-12-01T14:31:46.328Z,97461.72
2022-12-01T14:34:19.219Z,97462.00
2022-12-01T14:37:02.903Z,97460.09
2022-12-01T14:39:33.791Z,97457.25
2022-12-01T14:42:34.037Z,97457.66
2022-12-01T14:45:04.030Z,97465.38
2022-12-01T14:47:42.232Z,97466.28
2022-12-01T14:50:30.099Z,97465.81
2022-12-01T14:53:04.248Z,97466.63
2022-12-01T14:55:42.076Z,97469.47
2022-12-01T14:58:16.920Z,97470.34
2022-12-01T15:01:08.931Z,97470.16
2022-12-01T15:03:42.571Z,97468.03
2022-12-01T15:06:10.384Z,97472.31
2022-12-01T15:08:49.191Z,97478.13
2022-12-01T15:11:27.663Z,97482.03
2022-12-01T15:13:55.769Z,97490.00
2022-12-01T15:16:24.911Z,97480.34
2022-12-01T15:18:52.393Z,97481.50
2022-12-01T15:21:29.797Z,97480.88
2022-12-01T15:24:03.898Z,97476.00
2022-12-01T15:26:36.313Z,97474.25
2022-12-01T15:29:22.368Z,97483.97
2022-12-01T15:31:51.730Z,97480.63
2022-12-01T15:34:24.959Z,97487.69
2022-12-01T15:36:52.912Z,97484.31
2022-12-01T15:39:26.327Z,97491.34
2022-12-01T15:41:54.322Z,97490.66
2022-12-01T15:44:36.312Z,97482.78
2022-12-01T15:47:31.015Z,97488.94
2022-12-01T15:49:57.576Z,97486.28
2022-12-01T15:52:24.660Z,97483.59
2022-12-01T15:54:51.788Z,97480.06
2022-12-01T15:57:21.012Z,97487.22
2022-12-01T15:59:53.991Z,97482.97
2022-12-01T16:02:20.664Z,97484.69
2022-12-01T16:04:48.815Z,97480.13
2022-12-01T16:07:15.805Z,97481.91
2022-12-01T16:09:59.695Z,97488.94
2022-12-01T16:12:36.278Z,97476.81
2022-12-01T16:15:08.382Z,97484.50
2022-12-01T16:17:47.160Z,97488.81
2022-12-01T16:20:25.483Z,97478.47
2022-12-01T16:23:00.003Z,97474.97
2022-12-01T16:25:35.059Z,97477.66
2022-12-01T16:28:03.475Z,97485.56
2022-12-01T16:30:36.688Z,97483.66
2022-12-01T16:33:27.581Z,97480.31
2022-12-01T16:35:55.149Z,97472.50
2022-12-01T16:38:24.545Z,97483.88
2022-12-01T16:40:53.780Z,97483.88
2022-12-01T16:43:22.634Z,97479.47
2022-12-01T16:45:53.338Z,97486.59
2022-12-01T16:48:20.409Z,97481.47
2022-12-01T16:50:48.509Z,97484.25
2022-12-01T16:53:15.902Z,97479.03
2022-12-01T16:55:53.541Z,97491.28
2022-12-01T16:58:20.368Z,97493.84
2022-12-01T17:00:52.746Z,97487.09
2022-12-01T17:03:22.437Z,97483.47
2022-12-01T17:05:49.537Z,97493.94
2022-12-01T17:08:17.103Z,97490.50
2022-12-01T17:10:46.163Z,97492.03
2022-12-01T17:13:13.380Z,97489.31
2022-12-01T17:15:45.110Z,97490.22
2022-12-01T17:18:12.525Z,97491.88
2022-12-01T17:20:39.373Z,97490.88
2022-12-01T17:23:06.505Z,97485.56
2022-12-01T17:25:35.010Z,97488.97
2022-12-01T17:28:01.571Z,97484.38
2022-12-01T17:30:28.076Z,97475.78
2022-12-01T17:32:54.657Z,97482.75
2022-12-01T17:35:21.173Z,97476.75
2022-12-01T17:37:47.672Z,97475.84
2022-12-01T17:40:14.701Z,97479.41
2022-12-01T17:42:45.561Z,97477.72
2022-12-01T17:45:16.909Z,97471.69
2022-12-01T17:47:43.453Z,97491.03
2022-12-01T17:50:10.348Z,97483.53
2022-12-01T17:52:37.452Z,97485.31
2022-12-01T17:55:04.310Z,97490.34
2022-12-01T17:57:32.224Z,97488.50
2022-12-01T18:00:00.871Z,97488.50
2022-12-01T18:02:28.096Z,97485.81
2022-12-01T18:04:54.839Z,97485.94
2022-12-01T18:13:51.380Z,97490.13
2022-12-01T18:16:21.377Z,97487.59
2022-12-01T18:18:49.019Z,97490.97
2022-12-01T18:21:17.960Z,97491.84
2022-12-01T18:24:02.759Z,97490.03
2022-12-01T18:26:31.759Z,97492.81
2022-12-01T18:29:16.051Z,97492.63
2022-12-01T18:31:43.171Z,97493.53
2022-12-01T18:34:11.211Z,97489.91
2022-12-01T18:36:39.921Z,97496.88
2022-12-01T18:39:08.347Z,97492.56
2022-12-01T18:41:35.674Z,97487.88
2022-12-01T18:44:02.683Z,97497.53
2022-12-01T18:46:29.510Z,97488.19
2022-12-01T19:10:21.282Z,97483.59
2022-12-01T19:12:47.964Z,97486.13
2022-12-01T19:15:14.499Z,97483.72
2022-12-01T19:17:41.008Z,97480.09
2022-12-01T19:20:08.117Z,97477.53
2022-12-01T19:22:34.635Z,97481.88
2022-12-01T19:25:01.101Z,97479.13
2022-12-01T19:27:29.172Z,97476.78
2022-12-01T19:29:55.700Z,97480.28
2022-12-01T19:32:23.223Z,97469.72
2022-12-01T19:34:49.994Z,97473.19
2022-12-01T19:37:16.795Z,97487.19
2022-12-01T19:39:43.302Z,97472.56
2022-12-01T19:42:09.762Z,97488.22
2022-12-01T19:44:36.342Z,97490.78
2022-12-01T19:47:03.670Z,97486.34
2022-12-01T19:49:30.444Z,97488.34
2022-12-01T19:51:56.963Z,97493.31
2022-12-01T19:54:23.467Z,97487.28
2022-12-01T19:56:50.554Z,97487.34
2022-12-01T19:59:17.111Z,97485.56
2022-12-01T20:01:43.821Z,97489.94
2022-12-01T20:04:10.528Z,97495.09
2022-12-01T20:06:37.792Z,97486.38
2022-12-01T20:09:06.707Z,97492.44
2022-12-01T20:11:35.153Z,97483.78
2022-12-01T20:14:03.460Z,97485.56
2022-12-01T20:16:30.566Z,97489.69
2022-12-01T20:19:01.368Z,97488.88
2022-12-01T20:21:35.023Z,97483.91
2022-12-01T20:24:07.172Z,97491.72
2022-12-01T21:21:08.080Z,97474.28
2022-12-01T21:23:34.707Z,97475.13
2022-12-01T21:26:01.505Z,97481.38
2022-12-01T22:30:33.170Z,97461.09
2022-12-01T22:33:05.437Z,97455.00
2022-12-01T22:35:44.874Z,97453.22
2022-12-01T22:38:41.207Z,97454.22
2022-12-01T22:41:15.999Z,97447.25
2022-12-01T22:43:49.766Z,97453.28
2022-12-01T22:46:20.835Z,97449.75
2022-12-01T22:49:11.012Z,97455.78
2022-12-01T22:51:41.176Z,97447.22
2022-12-01T22:54:16.767Z,97452.28
2022-12-01T22:56:46.446Z,97453.16
2022-12-01T22:59:21.033Z,97452.41
2022-12-01T23:02:06.253Z,97445.47
2022-12-01T23:04:39.786Z,97442.72
2022-12-01T23:07:35.998Z,97441.94
2022-12-01T23:10:08.390Z,97439.34
2022-12-01T23:12:36.382Z,97436.91
